createdAt,value
2022-12-28T00:01:52.838Z,101582.72
2022-12-28T00:04:21.024Z,101573.75
2022-12-28T00:06:50.883Z,101575.31
2022-12-28T00:09:18.926Z,101565.72
2022-12-28T00:11:46.954Z,101552.91
2022-12-28T00:14:14.972Z,101548.69
2022-12-28T00:16:43.567Z,101548.50
2022-12-28T00:19:13.477Z,101540.56
2022-12-28T00:21:41.550Z,101534.75
2022-12-28T00:24:19.319Z,101522.38
2022-12-28T00:26:47.325Z,101532.81
2022-12-28T00:29:15.224Z,101520.41
2022-12-28T00:31:43.451Z,101512.31
2022-12-28T00:34:11.422Z,101500.63
2022-12-28T00:37:10.803Z,101503.34
2022-12-28T00:39:28.729Z,101491.97
2022-12-28T00:41:56.616Z,101487.75
2022-12-28T00:44:25.006Z,101486.13
2022-12-28T00:46:53.044Z,101481.50
2022-12-28T00:49:20.889Z,101483.13
2022-12-28T00:51:48.704Z,101478.66
2022-12-28T00:54:16.947Z,101481.78
2022-12-28T00:56:46.360Z,101473.00
2022-12-28T00:59:14.286Z,101463.16
2022-12-28T01:01:42.287Z,101464.41
2022-12-28T01:04:10.247Z,101454.69
2022-12-28T01:06:38.133Z,101447.69
2022-12-28T01:09:08.713Z,101447.16
2022-12-28T01:11:36.789Z,101443.34
2022-12-28T01:14:06.241Z,101444.97
2022-12-28T01:16:37.663Z,101430.06
2022-12-28T01:19:07.717Z,101434.19
2022-12-28T01:21:37.317Z,101430.06
2022-12-28T01:24:09.984Z,101423.56
2022-12-28T01:26:38.179Z,101412.97
2022-12-28T01:29:07.636Z,101395.03
2022-12-28T01:31:36.016Z,101399.75
2022-12-28T01:34:04.577Z,101390.91
2022-12-28T01:36:35.978Z,101388.72
2022-12-28T01:39:06.608Z,101387.63
2022-12-28T01:41:39.568Z,101381.41
2022-12-28T01:44:42.027Z,101371.97
2022-12-28T01:47:14.087Z,101363.16
2022-12-28T01:49:48.382Z,101364.13
2022-12-28T01:52:20.967Z,101359.56
2022-12-28T01:54:52.598Z,101354.44
2022-12-28T01:57:23.332Z,101349.88
2022-12-28T02:00:01.357Z,101358.25
2022-12-28T02:02:31.143Z,101354.13
2022-12-28T02:05:00.882Z,101355.97
2022-12-28T02:07:39.617Z,101346.91
2022-12-28T02:10:43.530Z,101351.34
2022-12-28T02:12:58.793Z,101349.66
2022-12-28T02:15:28.482Z,101348.75
2022-12-28T02:17:57.247Z,101348.63
2022-12-28T02:20:38.465Z,101342.41
2022-12-28T02:23:28.672Z,101340.72
2022-12-28T02:26:15.179Z,101345.69
2022-12-28T02:29:17.974Z,101340.78
2022-12-28T02:31:52.280Z,101336.69
2022-12-28T02:34:26.362Z,101330.66
2022-12-28T02:37:01.288Z,101317.97
2022-12-28T02:39:35.376Z,101308.91
2022-12-28T02:42:06.418Z,101305.56
2022-12-28T02:44:54.598Z,101295.72
2022-12-28T02:47:41.780Z,101288.44
2022-12-28T02:50:14.721Z,101291.81
2022-12-28T02:53:03.849Z,101284.66
2022-12-28T02:56:03.558Z,101273.13
2022-12-28T02:59:03.866Z,101268.25
2022-12-28T03:01:55.727Z,101266.41
2022-12-28T03:04:29.995Z,101251.91
2022-12-28T03:07:22.134Z,101254.56
2022-12-28T03:09:57.475Z,101232.13
2022-12-28T03:12:32.075Z,101228.69
2022-12-28T03:15:07.553Z,101231.69
2022-12-28T03:17:58.404Z,101228.34
2022-12-28T03:20:47.261Z,101220.75
2022-12-28T03:23:36.366Z,101224.63
2022-12-28T03:26:26.853Z,101216.38
2022-12-28T03:29:13.467Z,101204.84
2022-12-28T03:31:42.656Z,101187.66
2022-12-28T03:34:12.189Z,101188.03
2022-12-28T03:36:56.579Z,101180.00
2022-12-28T03:39:33.270Z,101167.06
2022-12-28T03:42:27.393Z,101169.63
2022-12-28T03:45:03.327Z,101173.47
2022-12-28T03:47:35.155Z,101159.72
2022-12-28T03:50:05.301Z,101161.63
2022-12-28T03:52:34.003Z,101157.75
2022-12-28T03:55:02.157Z,101151.66
2022-12-28T03:57:29.929Z,101145.78
2022-12-28T03:59:58.564Z,101141.66
2022-12-28T04:02:26.608Z,101130.38
2022-12-28T04:04:54.644Z,101134.94
2022-12-28T04:07:23.768Z,101114.63
2022-12-28T04:09:51.643Z,101116.78
2022-12-28T04:12:19.467Z,101104.75
2022-12-28T04:14:47.275Z,101102.78
2022-12-28T04:17:15.649Z,101096.31
2022-12-28T04:19:43.734Z,101098.41
2022-12-28T04:22:11.578Z,101085.88
2022-12-28T04:24:40.944Z,101071.47
2022-12-28T04:27:08.887Z,101073.25
2022-12-28T04:29:36.690Z,101065.28
2022-12-28T04:32:04.563Z,101047.13
2022-12-28T04:34:32.363Z,101045.59
2022-12-28T04:37:00.352Z,101035.09
2022-12-28T04:39:28.229Z,101035.91
2022-12-28T04:42:17.361Z,101017.50
2022-12-28T04:44:45.241Z,100998.31
2022-12-28T04:47:13.417Z,100991.38
2022-12-28T04:49:41.314Z,101007.47
2022-12-28T04:52:09.368Z,101006.00
2022-12-28T04:54:37.193Z,101009.03
2022-12-28T04:57:05.252Z,100994.97
2022-12-28T04:59:34.592Z,100966.09
2022-12-28T05:02:02.730Z,100975.22
2022-12-28T05:04:30.694Z,100978.91
2022-12-28T05:06:58.796Z,100989.13
2022-12-28T05:09:26.654Z,100968.72
2022-12-28T05:11:55.010Z,100973.97
2022-12-28T05:14:22.939Z,100980.06
2022-12-28T05:16:52.748Z,100962.00
2022-12-28T05:19:20.582Z,100961.66
2022-12-28T05:21:48.480Z,100965.97
2022-12-28T05:24:16.290Z,100957.50
2022-12-28T05:26:44.295Z,100940.88
2022-12-28T05:29:12.210Z,100944.47
2022-12-28T05:31:40.039Z,100938.97
2022-12-28T05:34:09.445Z,100945.53
2022-12-28T05:36:39.661Z,100946.75
2022-12-28T05:39:08.354Z,100950.69
2022-12-28T05:41:36.215Z,100948.91
2022-12-28T05:44:04.372Z,100949.72
2022-12-28T05:46:34.384Z,100946.66
2022-12-28T05:49:02.860Z,100946.31
2022-12-28T05:51:33.661Z,100939.94
2022-12-28T05:54:04.364Z,100936.38
2022-12-28T05:56:33.495Z,100934.09
2022-12-28T05:59:02.920Z,100923.94
2022-12-28T06:01:32.889Z,100930.84
2022-12-28T06:04:02.006Z,100919.31
2022-12-28T06:06:32.103Z,100922.69
2022-12-28T06:09:00.608Z,100889.28
2022-12-28T06:11:30.158Z,100867.78
2022-12-28T06:13:59.635Z,100868.09
2022-12-28T06:16:30.190Z,100866.72
2022-12-28T06:18:58.103Z,100864.53
2022-12-28T06:21:27.803Z,100863.09
2022-12-28T06:23:58.993Z,100856.91
2022-12-28T06:26:28.218Z,100849.44
2022-12-28T06:28:56.287Z,100832.50
2022-12-28T06:31:26.530Z,100835.88
2022-12-28T06:33:56.124Z,100847.63
2022-12-28T06:36:26.365Z,100840.88
2022-12-28T06:38:57.899Z,100838.22
2022-12-28T06:41:26.681Z,100834.59
2022-12-28T06:43:54.825Z,100833.16
2022-12-28T06:46:24.701Z,100827.16
2022-12-28T06:48:53.188Z,100814.81
2022-12-28T06:51:23.249Z,100813.56
2022-12-28T06:53:52.665Z,100817.72
2022-12-28T06:56:23.776Z,100815.13
2022-12-28T06:58:57.043Z,100815.00
2022-12-28T07:01:32.990Z,100806.34
2022-12-28T07:04:02.542Z,100801.81
2022-12-28T07:06:30.984Z,100806.75
2022-12-28T07:09:03.819Z,100801.97
2022-12-28T07:11:33.105Z,100792.06
2022-12-28T07:14:01.071Z,100795.66
2022-12-28T07:18:59.386Z,100801.75
2022-12-28T07:21:30.121Z,100789.06
2022-12-28T07:23:58.790Z,100787.69
2022-12-28T07:26:28.489Z,100792.69
2022-12-28T07:28:59.699Z,100793.84
2022-12-28T07:31:29.369Z,100792.91
2022-12-28T07:33:59.415Z,100791.91
2022-12-28T07:36:29.078Z,100789.59
2022-12-28T07:38:57.614Z,100780.78
2022-12-28T07:41:28.139Z,100787.66
2022-12-28T07:43:57.793Z,100767.97
2022-12-28T07:46:27.822Z,100780.38
2022-12-28T07:48:56.995Z,100780.22
2022-12-28T07:51:27.105Z,100777.06
2022-12-28T07:53:56.455Z,100778.13
2022-12-28T07:56:25.904Z,100777.25
2022-12-28T07:58:55.808Z,100769.94
2022-12-28T08:01:27.265Z,100767.38
2022-12-28T08:03:56.777Z,100771.34
2022-12-28T08:06:25.274Z,100775.41
2022-12-28T08:08:55.047Z,100766.28
2022-12-28T08:11:24.897Z,100771.84
2022-12-28T08:13:55.099Z,100760.75
2022-12-28T08:16:26.949Z,100769.72
2022-12-28T08:18:55.736Z,100776.66
2022-12-28T08:21:25.588Z,100769.03
2022-12-28T08:23:54.006Z,100769.56
2022-12-28T08:26:23.691Z,100766.06
2022-12-28T08:28:53.711Z,100766.78
2022-12-28T08:31:26.818Z,100769.75
2022-12-28T08:33:55.842Z,100768.97
2022-12-28T08:36:24.581Z,100770.13
2022-12-28T08:38:52.885Z,100763.13
2022-12-28T08:41:23.551Z,100756.84
2022-12-28T08:43:53.027Z,100767.38
2022-12-28T08:46:23.174Z,100779.41
2022-12-28T08:48:53.750Z,100769.78
2022-12-28T08:51:24.134Z,100766.44
2022-12-28T08:53:52.339Z,100761.59
2022-12-28T08:56:23.282Z,100766.13
2022-12-28T08:58:51.510Z,100747.59
2022-12-28T09:01:21.427Z,100758.31
2022-12-28T09:03:51.205Z,100754.66
2022-12-28T09:06:23.016Z,100757.78
2022-12-28T09:09:07.475Z,100753.31
2022-12-28T09:11:35.922Z,100755.56
2022-12-28T09:14:04.674Z,100757.72
2022-12-28T09:16:33.038Z,100745.63
2022-12-28T09:19:03.399Z,100748.16
2022-12-28T09:21:35.474Z,100744.91
2022-12-28T09:24:03.600Z,100743.41
2022-12-28T09:26:35.248Z,100755.91
2022-12-28T09:29:05.383Z,100752.66
2022-12-28T09:31:37.101Z,100758.41
2022-12-28T09:36:55.192Z,100751.91
2022-12-28T09:39:25.171Z,100749.41
2022-12-28T09:41:59.037Z,100748.72
2022-12-28T09:44:36.397Z,100752.69
2022-12-28T09:47:17.446Z,100745.31
2022-12-28T09:49:51.237Z,100749.69
2022-12-28T09:52:30.122Z,100745.47
2022-12-28T09:55:06.394Z,100749.78
2022-12-28T09:57:38.772Z,100746.25
2022-12-28T10:00:09.592Z,100738.19
2022-12-28T10:02:40.823Z,100743.78
2022-12-28T10:05:09.833Z,100748.19
2022-12-28T10:07:39.448Z,100739.16
2022-12-28T10:10:08.227Z,100739.44
2022-12-28T10:12:36.717Z,100744.78
2022-12-28T10:15:11.676Z,100741.34
2022-12-28T10:17:40.239Z,100745.28
2022-12-28T10:20:15.336Z,100733.03
2022-12-28T10:22:50.181Z,100735.59
2022-12-28T10:25:21.392Z,100736.28
2022-12-28T10:27:49.838Z,100728.53
2022-12-28T10:30:20.583Z,100739.34
2022-12-28T10:33:01.345Z,100728.00
2022-12-28T10:35:34.869Z,100730.63
2022-12-28T10:38:07.563Z,100728.44
2022-12-28T10:40:39.419Z,100731.31
2022-12-28T10:43:11.092Z,100723.66
2022-12-28T10:45:43.317Z,100715.34
2022-12-28T10:48:18.281Z,100721.47
2022-12-28T10:50:52.450Z,100735.03
2022-12-28T10:53:29.608Z,100733.34
2022-12-28T10:56:07.309Z,100730.25
2022-12-28T10:58:36.352Z,100734.44
2022-12-28T11:01:08.923Z,100731.06
2022-12-28T11:03:39.321Z,100737.06
2022-12-28T11:06:12.683Z,100733.13
2022-12-28T11:08:44.216Z,100731.69
2022-12-28T11:11:21.127Z,100726.97
2022-12-28T11:13:57.496Z,100723.66
2022-12-28T11:16:25.559Z,100720.13
2022-12-28T11:18:54.218Z,100727.22
2022-12-28T11:21:23.544Z,100727.72
2022-12-28T11:23:53.884Z,100720.16
2022-12-28T11:26:24.913Z,100720.22
2022-12-28T11:28:54.343Z,100726.59
2022-12-28T11:31:31.542Z,100724.56
2022-12-28T11:34:05.946Z,100720.31
2022-12-28T11:36:41.674Z,100719.69
2022-12-28T11:39:34.390Z,100714.47
2022-12-28T11:42:37.394Z,100714.66
2022-12-28T11:44:54.918Z,100711.75
2022-12-28T11:47:33.190Z,100717.50
2022-12-28T11:50:42.383Z,100706.59
2022-12-28T11:53:45.106Z,100713.66
2022-12-28T11:56:15.761Z,100709.97
2022-12-28T11:59:03.544Z,100710.13
2022-12-28T12:01:54.087Z,100700.41
2022-12-28T12:04:41.760Z,100695.28
2022-12-28T12:07:46.080Z,100707.00
2022-12-28T12:10:38.992Z,100693.28
2022-12-28T12:13:49.877Z,100708.91
2022-12-28T12:16:24.151Z,100710.69
2022-12-28T12:18:54.809Z,100700.34
2022-12-28T12:21:31.347Z,100689.97
2022-12-28T12:24:06.135Z,100689.31
2022-12-28T12:26:39.344Z,100690.16
2022-12-28T12:29:15.832Z,100687.69
2022-12-28T12:31:53.948Z,100677.81
2022-12-28T12:34:29.628Z,100678.28
2022-12-28T12:37:21.933Z,100675.94
2022-12-28T12:40:13.124Z,100686.69
2022-12-28T12:42:54.631Z,100682.94
2022-12-28T12:45:35.201Z,100694.63
2022-12-28T12:48:21.381Z,100677.31
2022-12-28T12:51:16.081Z,100685.97
2022-12-28T12:53:57.212Z,100680.63
2022-12-28T12:56:37.019Z,100689.13
2022-12-28T12:59:21.247Z,100686.63
2022-12-28T13:01:55.845Z,100683.50
2022-12-28T13:04:27.555Z,100682.69
2022-12-28T13:07:00.445Z,100679.72
2022-12-28T13:09:31.188Z,100678.88
2022-12-28T13:12:00.037Z,100679.63
2022-12-28T13:14:28.239Z,100674.91
2022-12-28T13:16:59.374Z,100675.06
2022-12-28T13:19:31.453Z,100669.94
2022-12-28T13:21:59.856Z,100664.72
2022-12-28T13:24:29.971Z,100660.63
2022-12-28T13:27:02.556Z,100673.31
2022-12-28T13:29:39.277Z,100654.72
2022-12-28T13:32:07.222Z,100660.22
2022-12-28T13:34:38.820Z,100661.66
2022-12-28T13:37:15.967Z,100650.78
2022-12-28T13:39:43.841Z,100655.00
2022-12-28T13:42:17.011Z,100656.81
2022-12-28T13:44:46.806Z,100657.56
2022-12-28T13:47:23.320Z,100657.31
2022-12-28T13:49:58.095Z,100660.94
2022-12-28T13:52:31.459Z,100655.59
2022-12-28T13:55:02.434Z,100655.50
2022-12-28T13:57:46.668Z,100661.50
2022-12-28T14:00:18.962Z,100663.59
2022-12-28T14:02:50.011Z,100664.25
2022-12-28T14:05:21.475Z,100664.94
2022-12-28T14:07:51.163Z,100665.03
2022-12-28T14:10:19.914Z,100663.28
2022-12-28T14:12:50.097Z,100650.94
2022-12-28T14:15:19.323Z,100659.75
2022-12-28T14:17:48.782Z,100658.47
2022-12-28T14:20:18.367Z,100654.94
2022-12-28T14:22:51.295Z,100652.06
2022-12-28T14:25:22.410Z,100655.81
2022-12-28T14:27:58.069Z,100649.88
2022-12-28T14:30:28.669Z,100656.47
2022-12-28T14:32:57.898Z,100648.28
2022-12-28T14:35:31.071Z,100649.25
2022-12-28T14:38:04.375Z,100646.53
2022-12-28T14:40:36.874Z,100645.88
2022-12-28T14:43:11.863Z,100648.63
2022-12-28T14:46:06.677Z,100639.41
2022-12-28T14:48:37.507Z,100642.91
2022-12-28T14:51:26.601Z,100639.31
2022-12-28T14:54:18.726Z,100640.44
2022-12-28T14:56:50.493Z,100641.31
2022-12-28T14:59:22.559Z,100635.53
2022-12-28T15:01:51.059Z,100635.44
2022-12-28T15:04:47.029Z,100630.41
2022-12-28T15:07:16.136Z,100633.31
2022-12-28T15:09:47.401Z,100636.25
2022-12-28T15:12:17.777Z,100623.63
2022-12-28T15:14:46.096Z,100622.28
2022-12-28T15:17:14.920Z,100636.81
2022-12-28T15:19:47.229Z,100636.09
2022-12-28T15:22:15.408Z,100624.94
2022-12-28T15:24:45.654Z,100619.81
2022-12-28T15:27:15.234Z,100621.59
2022-12-28T15:32:30.949Z,100615.16
2022-12-28T15:34:58.894Z,100604.91
2022-12-28T15:37:26.759Z,100609.81
2022-12-28T15:39:54.943Z,100598.53
2022-12-28T15:42:24.654Z,100599.66
2022-12-28T15:44:53.817Z,100605.00
2022-12-28T15:47:23.332Z,100608.69
2022-12-28T15:49:51.351Z,100600.91
2022-12-28T15:52:19.335Z,100598.69
2022-12-28T15:54:47.613Z,100599.38
2022-12-28T15:57:16.097Z,100599.28
2022-12-28T15:59:45.404Z,100592.72
2022-12-28T16:02:13.829Z,100594.25
2022-12-28T16:04:41.989Z,100592.53
2022-12-28T16:07:10.165Z,100587.84
2022-12-28T16:09:38.064Z,100586.06
2022-12-28T16:12:06.617Z,100589.28
2022-12-28T16:14:34.529Z,100581.38
2022-12-28T16:17:04.895Z,100578.81
2022-12-28T16:19:32.768Z,100574.16
2022-12-28T16:22:00.846Z,100576.81
2022-12-28T16:24:29.058Z,100566.94
2022-12-28T16:26:57.466Z,100573.31
2022-12-28T16:29:25.489Z,100571.97
2022-12-28T16:31:55.422Z,100572.81
2022-12-28T16:34:25.126Z,100571.56
2022-12-28T16:36:57.002Z,100568.75
2022-12-28T16:39:25.673Z,100583.00
2022-12-28T16:41:58.546Z,100577.03
2022-12-28T16:44:30.115Z,100581.50
2022-12-28T16:46:59.745Z,100578.81
2022-12-28T16:49:30.822Z,100574.81
2022-12-28T16:51:59.242Z,100572.72
2022-12-28T16:54:28.809Z,100573.59
2022-12-28T16:56:56.831Z,100582.44
2022-12-28T16:59:26.633Z,100574.72
2022-12-28T17:01:56.468Z,100570.25
2022-12-28T17:04:26.184Z,100565.50
2022-12-28T17:06:55.817Z,100565.72
2022-12-28T17:09:23.854Z,100563.22
2022-12-28T17:11:52.306Z,100563.06
2022-12-28T17:14:36.415Z,100558.56
2022-12-28T17:17:05.587Z,100555.13
2022-12-28T17:19:33.594Z,100550.66
2022-12-28T17:22:06.316Z,100556.19
2022-12-28T17:24:34.292Z,100551.53
2022-12-28T17:27:07.766Z,100532.56
2022-12-28T17:29:37.208Z,100534.78
2022-12-28T17:32:05.906Z,100533.56
2022-12-28T17:34:34.727Z,100521.94
2022-12-28T17:37:04.155Z,100516.25
2022-12-28T17:39:37.607Z,100511.78
2022-12-28T17:42:08.067Z,100489.88
2022-12-28T17:44:36.144Z,100467.03
2022-12-28T17:47:04.253Z,100475.88
2022-12-28T17:49:32.401Z,100462.56
2022-12-28T17:52:00.660Z,100463.31
2022-12-28T17:54:29.875Z,100448.88
2022-12-28T17:56:57.877Z,100446.97
2022-12-28T17:59:25.968Z,100491.50
2022-12-28T18:01:54.598Z,100493.97
2022-12-28T18:04:22.782Z,100482.75
2022-12-28T18:06:50.618Z,100484.66
2022-12-28T18:09:22.539Z,100479.63
2022-12-28T18:11:56.919Z,100464.31
2022-12-28T18:14:25.022Z,100460.41
2022-12-28T18:16:53.339Z,100447.09
2022-12-28T18:19:21.784Z,100442.44
2022-12-28T18:21:50.040Z,100440.53
2022-12-28T18:24:20.850Z,100430.31
2022-12-28T18:26:49.225Z,100439.19
2022-12-28T18:29:18.671Z,100438.03
2022-12-28T18:31:46.603Z,100444.28
2022-12-28T18:34:15.545Z,100427.97
2022-12-28T18:36:43.610Z,100419.78
2022-12-28T18:39:11.447Z,100416.34
2022-12-28T18:41:39.294Z,100412.53
2022-12-28T18:44:07.722Z,100423.38
2022-12-28T18:46:37.152Z,100418.63
2022-12-28T18:49:05.091Z,100415.97
2022-12-28T18:51:32.931Z,100412.59
2022-12-28T18:54:00.731Z,100401.69
2022-12-28T18:56:28.601Z,100403.94
2022-12-28T18:58:57.406Z,100397.47
2022-12-28T19:04:17.176Z,100386.34
2022-12-28T19:06:45.677Z,100378.44
2022-12-28T19:09:14.391Z,100379.94
2022-12-28T19:11:42.576Z,100368.38
2022-12-28T19:14:13.693Z,100365.97
2022-12-28T19:16:41.985Z,100359.63
2022-12-28T19:19:11.259Z,100362.19
2022-12-28T19:21:42.929Z,100367.88
2022-12-28T19:24:17.108Z,100363.91
2022-12-28T19:26:45.689Z,100347.56
2022-12-28T19:29:15.412Z,100355.34
2022-12-28T19:31:43.449Z,100343.00
2022-12-28T19:34:11.466Z,100344.50
2022-12-28T19:36:40.662Z,100338.59
2022-12-28T19:39:08.450Z,100337.00
2022-12-28T19:41:36.329Z,100337.19
2022-12-28T19:44:04.216Z,100338.25
2022-12-28T19:46:32.601Z,100334.84
2022-12-28T19:49:02.058Z,100331.66
2022-12-28T19:51:33.033Z,100325.31
2022-12-28T19:54:03.083Z,100326.34
2022-12-28T19:56:31.438Z,100313.03
2022-12-28T19:59:05.515Z,100319.91
2022-12-28T20:01:35.133Z,100320.47
2022-12-28T20:04:10.464Z,100320.06
2022-12-28T20:06:42.726Z,100314.19
2022-12-28T20:09:13.199Z,100321.78
2022-12-28T20:11:41.675Z,100314.88
2022-12-28T20:14:12.661Z,100318.00
2022-12-28T20:16:41.942Z,100314.66
2022-12-28T20:19:11.320Z,100303.75
2022-12-28T20:21:41.623Z,100301.94
2022-12-28T20:24:11.921Z,100296.06
2022-12-28T20:26:39.845Z,100289.13
2022-12-28T20:29:07.844Z,100288.88
2022-12-28T20:31:35.841Z,100290.38
2022-12-28T20:34:03.914Z,100277.25
2022-12-28T20:36:33.945Z,100284.91
2022-12-28T20:39:02.308Z,100270.94
2022-12-28T20:41:50.543Z,100269.25
2022-12-28T20:44:23.901Z,100262.81
2022-12-28T20:46:52.340Z,100268.13
2022-12-28T20:49:24.414Z,100265.03
2022-12-28T20:51:53.079Z,100258.84
2022-12-28T20:54:21.234Z,100244.78
2022-12-28T20:56:55.202Z,100263.22
2022-12-28T20:59:25.006Z,100261.22
2022-12-28T21:01:53.630Z,100252.00
2022-12-28T21:04:27.183Z,100241.44
2022-12-28T21:06:56.614Z,100232.78
2022-12-28T21:09:24.522Z,100220.44
2022-12-28T21:11:53.877Z,100214.09
2022-12-28T21:14:24.554Z,100211.44
2022-12-28T21:16:52.562Z,100203.34
2022-12-28T21:19:21.526Z,100198.84
2022-12-28T21:21:50.052Z,100192.38
2022-12-28T21:24:27.143Z,100181.44
2022-12-28T21:26:57.088Z,100187.41
2022-12-28T21:29:27.182Z,100183.66
2022-12-28T21:31:55.420Z,100176.59
2022-12-28T21:34:27.905Z,100162.25
2022-12-28T21:36:56.326Z,100171.50
2022-12-28T21:39:24.486Z,100170.75
2022-12-28T21:41:52.948Z,100161.06
2022-12-28T21:44:25.068Z,100160.41
2022-12-28T21:46:54.661Z,100154.78
2022-12-28T21:49:22.935Z,100146.81
2022-12-28T21:51:51.489Z,100158.53
2022-12-28T21:54:21.249Z,100148.31
2022-12-28T21:56:52.933Z,100143.34
2022-12-28T21:59:23.673Z,100147.81
2022-12-28T22:02:09.434Z,100146.84
2022-12-28T22:05:00.414Z,100157.31
2022-12-28T22:07:30.901Z,100118.56
2022-12-28T22:10:16.024Z,100126.94
2022-12-28T22:12:44.024Z,100123.63
2022-12-28T22:15:33.336Z,100113.44
2022-12-28T22:18:03.974Z,100120.25
2022-12-28T22:20:32.353Z,100116.53
2022-12-28T22:23:02.453Z,100096.88
2022-12-28T22:25:32.014Z,100097.69
2022-12-28T22:28:00.275Z,100115.00
2022-12-28T22:30:30.210Z,100116.00
2022-12-28T22:32:58.882Z,100103.47
2022-12-28T22:35:26.957Z,100099.41
2022-12-28T22:37:55.358Z,100088.44
2022-12-28T22:40:23.464Z,100092.38
2022-12-28T22:42:51.415Z,100097.31
2022-12-28T22:45:26.676Z,100093.47
2022-12-28T22:47:59.579Z,100077.91
2022-12-28T22:50:29.253Z,100073.13
2022-12-28T22:52:57.428Z,100082.59
2022-12-28T22:55:25.317Z,100075.59
2022-12-28T22:57:53.398Z,100064.94
2022-12-28T23:00:21.568Z,100058.13
2022-12-28T23:02:49.641Z,100057.25
2022-12-28T23:05:19.209Z,100055.63
2022-12-28T23:07:48.118Z,100063.56
2022-12-28T23:10:16.119Z,100063.00
2022-12-28T23:12:44.328Z,100066.50
2022-12-28T23:15:19.911Z,100068.88
2022-12-28T23:17:49.486Z,100056.22
2022-12-28T23:20:36.819Z,100054.72
2022-12-28T23:23:22.414Z,100058.00
2022-12-28T23:26:08.067Z,100057.38
2022-12-28T23:28:37.254Z,100067.59
2022-12-28T23:31:05.854Z,100057.50
2022-12-28T23:33:34.239Z,100056.00
2022-12-28T23:36:04.865Z,100061.78
2022-12-28T23:38:34.245Z,100053.16
2022-12-28T23:41:24.309Z,100049.75
2022-12-28T23:43:52.501Z,100041.53
2022-12-28T23:46:20.434Z,100044.44
2022-12-28T23:48:48.501Z,100042.22
2022-12-28T23:51:18.055Z,100040.59
2022-12-28T23:53:45.973Z,100031.94
2022-12-28T23:56:13.876Z,100018.03
2022-12-28T23:58:41.708Z,100043.16
